Time;durP1;ratioP1;P1;durP2;ratioP2;P2;SDS_P1;SDS_P2;PMS_P1;PMS_P2;Temp;Humidity;BMP_temperature;BMP_pressure;BME280_temperature;BME280_humidity;BME280_pressure;Samples;Min_cycle;Max_cycle;Signal;HPM_P1;HPM_P2
2022/02/07 00:00:44;;;;;;;0.90;0.75;;;2.30;99.90;;;;;;5052103;28;20599;-76
2022/02/07 00:03:19;;;;;;;0.70;0.63;;;2.20;99.90;;;;;;5052287;28;20765;-76
2022/02/07 00:05:48;;;;;;;1.00;0.90;;;2.20;99.90;;;;;;5049603;28;20659;-75
2022/02/07 00:08:16;;;;;;;0.70;0.60;;;2.10;99.90;;;;;;5051631;28;20216;-75
2022/02/07 00:10:43;;;;;;;1.27;0.70;;;2.10;99.90;;;;;;5051634;28;20723;-74
2022/02/07 00:13:12;;;;;;;1.55;0.70;;;2.00;99.90;;;;;;5051939;28;20207;-73
2022/02/07 00:15:39;;;;;;;0.80;0.70;;;2.00;99.90;;;;;;5055777;28;20233;-75
2022/02/07 00:18:07;;;;;;;1.08;0.70;;;2.00;99.90;;;;;;5058497;28;20236;-76
2022/02/07 00:20:35;;;;;;;0.70;0.68;;;2.00;99.90;;;;;;5054770;28;20335;-77
2022/02/07 00:23:02;;;;;;;0.85;0.75;;;2.00;99.90;;;;;;5054964;28;20211;-77
2022/02/07 00:25:30;;;;;;;0.70;0.70;;;1.90;99.90;;;;;;5054081;28;20598;-75
2022/02/07 00:27:57;;;;;;;0.70;0.70;;;1.90;99.90;;;;;;5050693;28;20300;-75
2022/02/07 00:30:26;;;;;;;1.00;0.70;;;1.90;99.90;;;;;;5057546;28;20193;-75
2022/02/07 00:32:53;;;;;;;1.20;0.70;;;1.90;99.90;;;;;;5054264;28;20197;-75
2022/02/07 00:35:23;;;;;;;1.15;0.73;;;1.90;99.90;;;;;;5052219;28;20371;-76
2022/02/07 00:37:52;;;;;;;0.80;0.70;;;1.90;99.90;;;;;;5051949;28;20699;-76
2022/02/07 00:40:40;;;;;;;0.90;0.70;;;1.80;99.90;;;;;;5052518;28;20294;-75
2022/02/07 00:43:26;;;;;;;1.00;0.80;;;1.80;99.90;;;;;;5051989;28;20201;-75
2022/02/07 00:45:57;;;;;;;0.80;0.70;;;1.80;99.90;;;;;;5052266;28;20224;-74
2022/02/07 00:48:24;;;;;;;1.80;0.80;;;1.70;99.90;;;;;;5051452;28;20280;-76
2022/02/07 00:50:55;;;;;;;0.80;0.70;;;1.70;99.90;;;;;;5052304;28;20205;-75
2022/02/07 00:53:22;;;;;;;0.90;0.70;;;1.70;99.90;;;;;;5051083;28;20208;-76
2022/02/07 00:55:49;;;;;;;0.80;0.70;;;1.80;99.90;;;;;;5051006;28;20221;-74
2022/02/07 00:58:16;;;;;;;1.25;0.80;;;1.80;99.90;;;;;;5051489;28;20684;-74
2022/02/07 01:00:43;;;;;;;1.02;0.75;;;1.80;99.90;;;;;;5050740;28;20229;-74
2022/02/07 01:03:11;;;;;;;2.60;2.40;;;1.90;99.90;;;;;;5050471;28;20208;-74
2022/02/07 01:05:40;;;;;;;1.45;0.90;;;1.90;99.90;;;;;;5050698;28;20221;-74
2022/02/07 01:08:08;;;;;;;0.90;0.70;;;1.90;99.90;;;;;;5051469;28;20201;-75
2022/02/07 01:10:43;;;;;;;0.80;0.70;;;1.90;99.90;;;;;;5051849;28;20548;-76
2022/02/07 01:13:17;;;;;;;0.80;0.80;;;2.00;99.90;;;;;;5051473;28;20204;-75
2022/02/07 01:15:53;;;;;;;0.70;0.60;;;2.00;99.90;;;;;;5052058;28;20232;-74
2022/02/07 01:21:50;;;;;;;0.70;0.70;;;2.00;99.90;;;;;;5051195;28;20224;-75
2022/02/07 01:46:46;;;;;;;0.80;0.70;;;2.20;99.90;;;;;;5051752;28;20215;-74
2022/02/07 01:49:41;;;;;;;1.60;0.90;;;2.20;99.90;;;;;;5051213;28;20262;-75
2022/02/07 01:52:22;;;;;;;0.80;0.68;;;2.20;99.90;;;;;;5051503;28;20197;-74
2022/02/07 01:55:00;;;;;;;1.00;0.80;;;2.20;99.90;;;;;;5051489;28;20216;-75
2022/02/07 01:57:27;;;;;;;1.20;0.90;;;2.20;99.90;;;;;;5051957;28;20205;-75
2022/02/07 01:59:54;;;;;;;1.95;1.10;;;2.30;99.90;;;;;;5051604;28;20221;-76
2022/02/07 02:02:21;;;;;;;1.10;0.80;;;2.30;99.90;;;;;;5052364;28;20201;-73
2022/02/07 02:04:47;;;;;;;1.77;0.80;;;2.30;99.90;;;;;;5051114;28;20208;-75
2022/02/07 02:07:16;;;;;;;0.98;0.75;;;2.30;99.90;;;;;;5051347;28;20220;-76
2022/02/07 02:09:43;;;;;;;3.50;0.95;;;2.40;99.90;;;;;;5051498;28;20212;-76
2022/02/07 02:12:10;;;;;;;1.40;0.90;;;2.40;99.90;;;;;;5051231;28;20212;-75
2022/02/07 02:14:49;;;;;;;1.20;1.00;;;2.50;99.90;;;;;;5051146;28;20204;-75
2022/02/07 02:17:43;;;;;;;1.35;0.98;;;2.50;99.90;;;;;;5051410;28;20212;-76
2022/02/07 02:20:48;;;;;;;0.90;0.80;;;2.50;99.90;;;;;;5051081;28;20228;-75
2022/02/07 02:37:13;;;;;;;2.85;1.10;;;2.60;99.90;;;;;;5050812;28;20223;-77
2022/02/07 02:45:30;;;;;;;1.40;0.90;;;2.70;99.90;;;;;;5060123;28;20746;-75
2022/02/07 02:48:00;;;;;;;3.75;1.45;;;2.60;99.90;;;;;;5064487;28;20690;-74
2022/02/07 02:50:29;;;;;;;3.38;1.50;;;2.60;99.90;;;;;;5059999;28;20229;-75
2022/02/07 02:52:59;;;;;;;1.67;1.15;;;2.60;99.90;;;;;;5061254;28;20209;-74
2022/02/07 02:55:27;;;;;;;1.73;1.15;;;2.60;99.90;;;;;;5060692;28;20236;-76
2022/02/07 02:57:54;;;;;;;1.40;1.30;;;2.70;99.90;;;;;;5059618;28;20205;-76
2022/02/07 03:00:20;;;;;;;3.40;1.75;;;2.70;99.90;;;;;;5059461;28;20225;-76
2022/02/07 03:02:47;;;;;;;5.30;1.20;;;2.60;99.90;;;;;;5058648;28;20212;-76
2022/02/07 03:05:15;;;;;;;1.60;1.20;;;2.70;99.90;;;;;;5058941;28;20704;-75
2022/02/07 03:07:43;;;;;;;1.10;0.90;;;2.70;99.90;;;;;;5056604;28;20241;-76
2022/02/07 03:10:10;;;;;;;2.65;1.10;;;2.70;99.90;;;;;;5058432;28;20208;-78
2022/02/07 03:12:45;;;;;;;1.00;0.90;;;2.70;99.90;;;;;;5058072;28;20321;-75
2022/02/07 03:17:56;;;;;;;3.72;1.35;;;2.60;99.90;;;;;;5060535;28;20199;-76
2022/02/07 03:20:23;;;;;;;1.98;1.35;;;2.50;99.90;;;;;;5059166;28;20216;-75
2022/02/07 03:22:50;;;;;;;1.20;1.10;;;2.50;99.90;;;;;;5056106;28;20201;-75
2022/02/07 03:25:16;;;;;;;3.38;1.30;;;2.50;99.90;;;;;;5054859;28;20220;-76
2022/02/07 03:27:45;;;;;;;2.17;1.10;;;2.50;99.90;;;;;;5055047;28;20200;-75
2022/02/07 03:30:12;;;;;;;3.55;1.58;;;2.50;99.90;;;;;;5055445;28;20197;-75
2022/02/07 03:32:38;;;;;;;2.15;1.67;;;2.50;99.90;;;;;;5053879;28;20204;-74
2022/02/07 03:35:06;;;;;;;3.00;1.30;;;2.50;99.90;;;;;;5054827;28;20213;-74
2022/02/07 03:37:33;;;;;;;4.20;1.20;;;2.50;99.90;;;;;;5054174;28;20216;-74
2022/02/07 03:40:00;;;;;;;3.25;1.15;;;2.50;99.90;;;;;;5054341;28;20211;-74
2022/02/07 03:42:27;;;;;;;2.10;1.35;;;2.50;99.90;;;;;;5053676;28;20209;-73
2022/02/07 03:44:55;;;;;;;2.75;1.20;;;2.40;99.90;;;;;;5054123;28;20205;-75
2022/02/07 03:47:21;;;;;;;2.78;1.45;;;2.40;99.90;;;;;;5054437;28;20212;-75
2022/02/07 03:49:48;;;;;;;5.60;1.58;;;2.50;99.90;;;;;;5054047;28;20208;-74
2022/02/07 03:52:15;;;;;;;1.92;1.30;;;2.50;99.90;;;;;;5053610;28;20204;-74
2022/02/07 03:54:42;;;;;;;2.50;1.52;;;2.60;99.90;;;;;;5054447;28;20201;-78
2022/02/07 03:57:08;;;;;;;2.63;1.00;;;2.50;99.90;;;;;;5053410;28;20224;-76
2022/02/07 03:59:35;;;;;;;3.17;0.80;;;2.40;99.90;;;;;;5053670;28;20704;-74
2022/02/07 04:02:03;;;;;;;1.23;0.70;;;2.10;99.90;;;;;;5053844;28;20231;-74
2022/02/07 04:04:30;;;;;;;1.00;0.80;;;1.90;99.90;;;;;;5053359;28;20920;-75
2022/02/07 04:06:57;;;;;;;1.20;0.80;;;1.70;99.90;;;;;;5054185;28;20240;-75
2022/02/07 04:09:29;;;;;;;1.25;0.70;;;1.60;99.90;;;;;;5054066;28;20205;-73
2022/02/07 04:12:02;;;;;;;0.80;0.70;;;1.50;99.90;;;;;;5054026;28;20229;-74
2022/02/07 04:14:28;;;;;;;1.00;0.90;;;1.50;99.90;;;;;;5053708;28;20201;-74
2022/02/07 04:16:55;;;;;;;0.80;0.70;;;1.40;99.90;;;;;;5055332;28;20232;-76
2022/02/07 04:19:30;;;;;;;0.95;0.77;;;1.30;99.90;;;;;;5054458;28;20231;-74
2022/02/07 04:21:57;;;;;;;1.02;0.80;;;1.40;99.90;;;;;;5053477;28;20252;-76
2022/02/07 04:24:24;;;;;;;0.90;0.70;;;1.30;99.90;;;;;;5052687;28;20201;-75
2022/02/07 04:26:51;;;;;;;1.30;1.20;;;1.30;99.90;;;;;;5052377;28;20221;-74
2022/02/07 04:29:17;;;;;;;3.75;1.10;;;1.30;99.90;;;;;;5053452;28;20205;-75
2022/02/07 04:31:44;;;;;;;1.27;0.88;;;1.30;99.90;;;;;;5053273;28;20205;-76
2022/02/07 04:34:11;;;;;;;1.88;0.90;;;1.30;99.90;;;;;;5044799;28;20575;-76
2022/02/07 04:36:41;;;;;;;1.35;1.10;;;1.30;99.90;;;;;;5044779;28;20249;-74
2022/02/07 04:39:07;;;;;;;1.20;1.10;;;1.30;99.90;;;;;;5041326;28;20198;-74
2022/02/07 04:41:34;;;;;;;1.23;0.90;;;1.20;99.90;;;;;;5040749;28;20239;-74
2022/02/07 04:44:05;;;;;;;3.00;0.90;;;1.20;99.90;;;;;;5041840;28;20208;-74
2022/02/07 04:46:46;;;;;;;4.22;1.30;;;1.20;99.90;;;;;;5041406;28;20217;-75
2022/02/07 04:49:24;;;;;;;3.00;1.02;;;1.30;99.90;;;;;;5130552;23;20293;-75
2022/02/07 04:52:02;;;;;;;1.95;1.10;;;1.30;99.90;;;;;;5067535;28;20649;-76
2022/02/07 04:54:48;;;;;;;2.65;1.02;;;1.20;99.90;;;;;;5070529;28;20275;-75
2022/02/07 04:57:31;;;;;;;1.65;1.00;;;1.20;99.90;;;;;;5048668;28;20196;-75
2022/02/07 05:00:05;;;;;;;3.45;1.40;;;1.30;99.90;;;;;;5051168;28;20219;-75
2022/02/07 05:02:47;;;;;;;4.05;1.27;;;1.20;99.90;;;;;;5046884;28;20224;-73
2022/02/07 05:05:25;;;;;;;4.68;1.30;;;1.20;99.90;;;;;;5048032;28;20221;-75
2022/02/07 05:13:45;;;;;;;8.10;1.40;;;1.20;99.90;;;;;;5049661;28;20204;-74
2022/02/07 05:16:19;;;;;;;2.85;1.10;;;1.10;99.90;;;;;;5050236;28;20300;-74
2022/02/07 05:18:49;;;;;;;8.35;1.95;;;1.10;99.90;;;;;;5049904;28;20205;-74
2022/02/07 05:21:16;;;;;;;3.80;1.33;;;1.10;99.90;;;;;;5049797;28;20209;-74
2022/02/07 05:23:44;;;;;;;3.47;1.25;;;1.20;99.90;;;;;;5049283;28;20201;-74
2022/02/07 05:26:11;;;;;;;4.32;1.33;;;1.20;99.90;;;;;;5049562;28;20464;-72
2022/02/07 05:28:38;;;;;;;4.40;1.40;;;1.20;99.90;;;;;;5049827;28;20470;-72
2022/02/07 05:31:04;;;;;;;6.45;1.83;;;1.20;99.90;;;;;;5049146;28;20251;-71
2022/02/07 05:33:31;;;;;;;3.72;1.15;;;1.30;99.90;;;;;;5046957;28;20208;-72
2022/02/07 05:35:58;;;;;;;1.02;0.93;;;1.30;99.90;;;;;;5047936;28;20475;-72
2022/02/07 05:38:25;;;;;;;2.75;1.33;;;1.30;99.90;;;;;;5047621;28;20201;-71
2022/02/07 05:40:56;;;;;;;2.08;1.30;;;1.40;99.90;;;;;;5048230;28;20220;-72
2022/02/07 05:43:23;;;;;;;1.67;1.42;;;1.40;99.90;;;;;;5048005;28;20212;-71
2022/02/07 05:45:50;;;;;;;2.00;1.25;;;1.40;99.90;;;;;;5049292;28;20227;-72
2022/02/07 05:48:16;;;;;;;1.98;1.35;;;1.40;99.90;;;;;;5050719;28;20212;-72
2022/02/07 05:50:43;;;;;;;5.65;1.95;;;1.40;99.90;;;;;;5069135;28;20212;-71
2022/02/07 05:53:10;;;;;;;6.05;1.60;;;1.40;99.90;;;;;;5070132;28;20204;-72
2022/02/07 05:55:36;;;;;;;3.95;1.52;;;1.40;99.90;;;;;;5070013;28;20749;-72
2022/02/07 05:58:04;;;;;;;1.35;1.20;;;1.40;99.90;;;;;;5070579;28;20549;-72
2022/02/07 06:00:33;;;;;;;1.98;1.13;;;1.40;99.90;;;;;;5070306;28;20200;-72
2022/02/07 06:02:59;;;;;;;4.90;1.50;;;1.40;99.90;;;;;;5069728;28;20205;-72
2022/02/07 06:05:26;;;;;;;1.52;1.15;;;1.40;99.90;;;;;;5070133;28;20224;-71
2022/02/07 06:07:53;;;;;;;5.28;1.40;;;1.40;99.90;;;;;;5070003;28;20254;-71
2022/02/07 06:10:20;;;;;;;2.90;1.50;;;1.40;99.90;;;;;;5070272;28;20200;-72
2022/02/07 06:12:47;;;;;;;7.88;1.70;;;1.50;99.90;;;;;;5069399;28;20208;-72
2022/02/07 06:15:17;;;;;;;3.67;1.92;;;1.50;99.90;;;;;;5069873;28;20247;-72
2022/02/07 06:17:46;;;;;;;2.53;1.30;;;1.50;99.90;;;;;;5069662;28;20196;-72
2022/02/07 06:20:13;;;;;;;3.42;1.75;;;1.50;99.90;;;;;;5070014;28;20201;-72
2022/02/07 06:22:40;;;;;;;5.20;1.30;;;1.50;99.90;;;;;;5069088;28;20224;-72
2022/02/07 06:25:07;;;;;;;2.80;1.63;;;1.50;99.90;;;;;;5069738;28;20228;-72
2022/02/07 06:27:34;;;;;;;2.88;1.10;;;1.60;99.90;;;;;;5069513;28;20204;-72
2022/02/07 06:30:01;;;;;;;3.63;1.90;;;1.60;99.90;;;;;;5070024;28;20200;-72
2022/02/07 06:32:29;;;;;;;3.70;1.60;;;1.70;99.90;;;;;;5069454;28;20355;-71
2022/02/07 06:34:55;;;;;;;7.90;2.35;;;1.70;99.90;;;;;;5070011;28;20672;-72
2022/02/07 06:37:22;;;;;;;3.03;1.50;;;1.70;99.90;;;;;;5069605;28;20208;-71
2022/02/07 06:39:49;;;;;;;5.10;2.05;;;1.80;99.90;;;;;;5069770;28;20680;-71
2022/02/07 06:42:17;;;;;;;4.63;1.52;;;1.80;99.90;;;;;;5068581;28;20219;-71
2022/02/07 06:44:44;;;;;;;4.30;1.42;;;1.80;99.90;;;;;;5069117;28;20196;-72
2022/02/07 06:47:11;;;;;;;2.33;1.55;;;1.80;99.90;;;;;;5069179;28;20216;-70
2022/02/07 06:49:39;;;;;;;4.75;1.75;;;1.90;99.90;;;;;;5068634;28;20208;-72
2022/02/07 06:52:07;;;;;;;1.90;1.20;;;1.90;99.90;;;;;;5069337;28;20200;-72
2022/02/07 06:54:35;;;;;;;4.00;1.38;;;1.90;99.90;;;;;;5068988;28;20236;-71
2022/02/07 06:57:02;;;;;;;6.28;1.70;;;1.90;99.90;;;;;;5069405;28;20224;-72
2022/02/07 06:59:32;;;;;;;3.38;1.40;;;1.90;99.90;;;;;;5069430;28;20254;-72
2022/02/07 07:01:59;;;;;;;1.88;1.58;;;1.90;99.90;;;;;;5069356;28;20277;-71
2022/02/07 07:04:28;;;;;;;3.40;1.40;;;1.80;99.90;;;;;;5068996;28;20197;-72
2022/02/07 07:06:56;;;;;;;3.85;1.70;;;1.70;99.90;;;;;;5069345;28;20521;-71
2022/02/07 07:09:23;;;;;;;4.18;1.63;;;1.70;99.90;;;;;;5069497;28;20247;-73
2022/02/07 07:11:50;;;;;;;5.07;2.72;;;1.70;99.90;;;;;;5068108;28;20196;-72
2022/02/07 07:14:27;;;;;;;2.05;1.58;;;1.80;99.90;;;;;;5068666;28;20812;-73
2022/02/07 07:16:55;;;;;;;4.93;2.63;;;1.90;99.90;;;;;;5068572;28;20224;-72
2022/02/07 07:19:22;;;;;;;6.00;1.80;;;2.00;99.90;;;;;;5069002;28;20204;-72
2022/02/07 07:21:49;;;;;;;4.43;1.40;;;2.10;99.90;;;;;;5068319;28;20220;-72
2022/02/07 07:24:17;;;;;;;4.45;1.75;;;2.10;99.90;;;;;;5068213;28;20216;-71
2022/02/07 07:26:44;;;;;;;5.03;1.70;;;2.20;99.90;;;;;;5068423;28;20235;-71
2022/02/07 07:29:15;;;;;;;5.93;2.03;;;2.20;99.90;;;;;;5068496;28;20211;-72
2022/02/07 07:31:46;;;;;;;3.08;2.05;;;2.30;99.90;;;;;;5068534;28;20292;-71
2022/02/07 07:34:17;;;;;;;3.72;1.50;;;2.30;99.90;;;;;;5068105;28;20242;-72
2022/02/07 07:36:44;;;;;;;9.07;1.65;;;2.30;99.90;;;;;;5068602;28;20318;-72
2022/02/07 07:39:12;;;;;;;5.57;2.10;;;2.30;99.90;;;;;;5068450;28;20211;-72
2022/02/07 07:41:41;;;;;;;3.60;1.92;;;2.30;99.90;;;;;;5068365;28;20771;-71
2022/02/07 07:44:08;;;;;;;5.97;1.70;;;2.40;99.90;;;;;;5068055;28;20228;-72
2022/02/07 07:46:36;;;;;;;6.03;2.67;;;2.40;99.90;;;;;;5068144;28;20273;-71
2022/02/07 07:49:08;;;;;;;3.42;2.15;;;2.50;99.90;;;;;;5068435;28;20216;-72
2022/02/07 07:51:41;;;;;;;3.58;2.20;;;2.50;99.90;;;;;;5068420;28;20206;-72
2022/02/07 07:54:18;;;;;;;4.10;1.50;;;2.70;99.90;;;;;;5067716;28;20239;-72
2022/02/07 08:02:17;;;;;;;3.83;1.67;;;5.20;99.90;;;;;;5070621;28;20600;-72
2022/02/07 08:04:45;;;;;;;5.45;1.83;;;6.30;99.90;;;;;;5071852;28;20243;-72
2022/02/07 08:07:18;;;;;;;3.85;1.70;;;7.30;99.90;;;;;;5072019;28;20282;-72
2022/02/07 08:12:33;;;;;;;6.13;2.00;;;9.00;99.90;;;;;;5069879;28;20194;-73
2022/02/07 08:15:00;;;;;;;4.82;1.58;;;9.60;99.90;;;;;;5070548;28;20212;-73
2022/02/07 08:17:27;;;;;;;3.13;2.25;;;9.90;99.90;;;;;;5070491;28;20299;-72
2022/02/07 08:19:54;;;;;;;4.22;1.80;;;9.90;99.90;;;;;;5070656;28;20572;-73
2022/02/07 08:22:23;;;;;;;3.25;1.30;;;10.00;98.80;;;;;;5070199;28;20227;-73
2022/02/07 08:24:55;;;;;;;1.98;1.33;;;10.20;99.00;;;;;;5070069;28;20201;-73
2022/02/07 08:27:24;;;;;;;4.07;2.00;;;10.30;98.30;;;;;;5070582;28;20204;-72
2022/02/07 08:29:53;;;;;;;6.75;1.42;;;10.40;98.30;;;;;;5070653;28;20405;-72
2022/02/07 08:32:21;;;;;;;6.07;1.60;;;10.70;98.10;;;;;;5069903;28;20212;-73
2022/02/07 08:34:48;;;;;;;3.25;1.73;;;11.40;97.50;;;;;;5069191;28;20204;-73
2022/02/07 08:37:20;;;;;;;6.35;1.60;;;12.00;96.60;;;;;;5070719;28;20196;-73
2022/02/07 08:39:50;;;;;;;2.72;1.60;;;12.70;95.90;;;;;;5070081;28;20204;-73
2022/02/07 08:42:18;;;;;;;3.05;1.40;;;13.10;95.30;;;;;;5070114;28;20632;-72
2022/02/07 08:44:49;;;;;;;3.88;1.65;;;13.30;94.90;;;;;;5070409;28;20227;-73
2022/02/07 08:47:24;;;;;;;3.67;1.55;;;13.80;94.10;;;;;;5070385;28;20682;-72
2022/02/07 08:49:51;;;;;;;4.32;1.63;;;14.10;93.60;;;;;;5070598;28;20683;-72
2022/02/07 08:52:18;;;;;;;2.40;1.42;;;14.20;93.50;;;;;;5069948;28;20196;-72
2022/02/07 08:54:46;;;;;;;3.13;1.38;;;14.40;93.50;;;;;;5069890;28;20247;-73
2022/02/07 08:57:24;;;;;;;3.97;1.60;;;15.50;93.00;;;;;;5070058;28;20204;-73
2022/02/07 09:00:02;;;;;;;4.57;1.60;;;15.70;91.60;;;;;;5070537;28;20239;-72
2022/02/07 09:05:34;;;;;;;6.07;2.75;;;11.30;94.40;;;;;;5070256;28;20606;-72
2022/02/07 09:08:09;;;;;;;3.28;1.30;;;10.80;95.60;;;;;;5070414;28;20192;-72
2022/02/07 09:10:36;;;;;;;2.08;1.73;;;11.20;95.50;;;;;;5069506;28;20227;-73
2022/02/07 09:13:03;;;;;;;3.58;1.88;;;11.50;95.30;;;;;;5068975;28;20205;-72
2022/02/07 09:15:33;;;;;;;6.55;1.90;;;10.80;95.40;;;;;;5069997;28;20224;-72
2022/02/07 09:18:04;;;;;;;3.10;1.50;;;9.80;96.50;;;;;;5068622;28;20220;-72
2022/02/07 09:20:31;;;;;;;3.95;1.40;;;8.50;98.00;;;;;;5070458;28;20704;-72
2022/02/07 09:22:58;;;;;;;3.08;1.63;;;7.60;98.90;;;;;;5069464;28;20227;-72
2022/02/07 09:25:25;;;;;;;3.75;1.80;;;7.00;99.90;;;;;;5069057;28;20224;-72
2022/02/07 09:27:52;;;;;;;3.53;1.73;;;7.20;99.90;;;;;;5069937;28;20572;-72
2022/02/07 09:30:19;;;;;;;3.88;1.88;;;8.00;99.10;;;;;;5070941;28;20204;-72
2022/02/07 09:32:46;;;;;;;2.00;1.48;;;8.60;99.30;;;;;;5069621;28;20568;-73
2022/02/07 09:35:15;;;;;;;5.70;1.60;;;10.60;96.90;;;;;;5070681;28;20723;-73
2022/02/07 09:37:42;;;;;;;1.83;1.20;;;12.00;94.60;;;;;;5070381;28;20196;-71
2022/02/07 09:40:11;;;;;;;7.78;1.85;;;11.30;94.10;;;;;;5070478;28;20208;-70
2022/02/07 09:42:42;;;;;;;5.05;2.25;;;10.00;95.30;;;;;;5069818;28;20596;-73
2022/02/07 09:45:11;;;;;;;2.53;1.63;;;8.70;97.20;;;;;;5070523;28;21044;-73
2022/02/07 09:47:39;;;;;;;2.70;1.40;;;7.70;98.50;;;;;;5069497;28;20671;-73
2022/02/07 09:50:06;;;;;;;5.90;2.67;;;6.90;99.30;;;;;;5070023;28;20223;-72
2022/02/07 09:52:34;;;;;;;3.65;1.60;;;6.50;99.90;;;;;;5069020;28;20220;-72
2022/02/07 09:55:02;;;;;;;3.30;1.90;;;6.60;99.90;;;;;;5069358;28;20228;-73
2022/02/07 09:57:28;;;;;;;3.55;2.17;;;6.70;99.90;;;;;;5069361;28;20208;-72
2022/02/07 09:59:56;;;;;;;4.90;1.80;;;7.00;99.90;;;;;;5069818;28;20208;-73
2022/02/07 10:02:31;;;;;;;5.07;2.17;;;8.00;99.60;;;;;;5068776;28;20864;-73
2022/02/07 10:05:02;;;;;;;2.20;1.45;;;8.20;98.80;;;;;;5069468;28;20265;-73
2022/02/07 10:07:36;;;;;;;4.30;1.75;;;8.10;98.80;;;;;;5069442;28;20278;-73
2022/02/07 10:10:22;;;;;;;2.55;1.80;;;7.80;99.30;;;;;;5069495;28;20226;-71
2022/02/07 10:13:06;;;;;;;2.90;1.67;;;8.00;99.00;;;;;;5068803;28;20253;-73
2022/02/07 10:15:41;;;;;;;4.75;1.75;;;8.70;99.20;;;;;;5068802;28;20224;-73
2022/02/07 10:18:16;;;;;;;8.65;2.22;;;10.90;97.10;;;;;;5069507;28;20235;-73
2022/02/07 10:35:19;;;;;;;5.60;1.70;;;16.70;87.20;;;;;;5068985;28;20438;-73
2022/02/07 10:38:04;;;;;;;5.68;2.42;;;15.80;87.80;;;;;;5067888;28;20482;-72
2022/02/07 10:40:35;;;;;;;5.20;2.50;;;14.10;90.00;;;;;;5068926;28;20583;-72
2022/02/07 10:43:13;;;;;;;5.47;2.10;;;12.40;91.10;;;;;;5067303;28;20254;-72
2022/02/07 10:46:05;;;;;;;4.60;2.40;;;11.00;91.80;;;;;;5068053;28;20220;-72
2022/02/07 10:48:38;;;;;;;6.40;2.20;;;9.70;94.90;;;;;;5064537;28;20205;-72
2022/02/07 10:51:07;;;;;;;3.60;1.60;;;9.20;95.40;;;;;;5125301;22;20307;-91
2022/02/07 10:53:36;;;;;;;6.82;2.08;;;8.80;95.40;;;;;;5086494;28;20202;-91
2022/02/07 10:56:03;;;;;;;4.35;1.92;;;8.20;95.80;;;;;;5093801;28;20546;-90
2022/02/07 10:58:32;;;;;;;4.53;2.08;;;7.60;96.60;;;;;;5093807;28;20212;-90
2022/02/07 11:01:06;;;;;;;3.20;1.60;;;7.10;97.50;;;;;;5093791;28;20215;-91
2022/02/07 11:03:39;;;;;;;4.22;1.60;;;6.70;97.60;;;;;;5093314;28;20671;-91
2022/02/07 11:06:08;;;;;;;4.15;1.45;;;6.40;98.00;;;;;;5094335;28;20214;-92
2022/02/07 11:08:45;;;;;;;4.00;1.70;;;6.10;98.70;;;;;;5094133;28;20298;-91
2022/02/07 11:11:32;;;;;;;5.30;1.90;;;5.90;99.10;;;;;;5093906;28;20285;-91
2022/02/07 11:14:23;;;;;;;4.70;1.90;;;5.90;99.00;;;;;;5094405;28;20195;-91
2022/02/07 11:17:04;;;;;;;4.30;1.80;;;5.90;99.30;;;;;;5094436;28;20272;-92
2022/02/07 11:25:37;;;;;;;4.13;1.70;;;6.20;99.00;;;;;;5027852;28;20213;-91
2022/02/07 11:28:33;;;;;;;5.22;1.75;;;5.90;98.60;;;;;;5075213;28;20200;-91
2022/02/07 11:31:05;;;;;;;2.40;1.40;;;5.60;99.00;;;;;;5094203;28;20699;-91
2022/02/07 11:33:38;;;;;;;7.30;2.10;;;5.40;99.10;;;;;;5093742;28;20207;-91
2022/02/07 11:36:11;;;;;;;3.13;2.05;;;5.40;99.90;;;;;;5095649;28;20203;-92
2022/02/07 11:38:55;;;;;;;8.40;2.28;;;5.30;99.90;;;;;;5111345;28;20227;-95
2022/02/07 11:41:22;;;;;;;2.83;2.17;;;5.30;99.90;;;;;;5121533;28;20187;-94
2022/02/07 11:43:49;;;;;;;5.85;2.15;;;5.20;99.90;;;;;;5121137;28;20279;-94
2022/02/07 11:46:17;;;;;;;6.05;1.83;;;5.10;99.90;;;;;;5121099;28;20236;-96
2022/02/07 11:48:46;;;;;;;5.70;1.98;;;5.10;99.90;;;;;;5121051;28;20180;-94
2022/02/07 11:51:15;;;;;;;2.88;1.45;;;5.10;99.90;;;;;;5081858;22;20285;-75
2022/02/07 11:53:47;;;;;;;3.08;1.88;;;5.00;99.90;;;;;;5071537;28;20197;-76
2022/02/07 11:56:20;;;;;;;3.40;1.77;;;4.90;99.90;;;;;;5072321;28;20347;-76
2022/02/07 11:59:10;;;;;;;3.83;1.90;;;4.90;99.90;;;;;;5071957;28;20257;-75
2022/02/07 12:01:58;;;;;;;7.57;1.60;;;4.90;99.90;;;;;;5074371;28;20250;-75
2022/02/07 12:04:30;;;;;;;4.05;1.63;;;4.90;99.90;;;;;;5070910;28;20226;-75
2022/02/07 12:07:08;;;;;;;2.78;1.10;;;4.80;99.90;;;;;;5071760;28;20263;-73
2022/02/07 12:09:36;;;;;;;4.53;1.80;;;4.80;99.90;;;;;;5071428;28;20218;-74
2022/02/07 12:12:03;;;;;;;6.57;1.70;;;4.90;99.90;;;;;;5071862;28;20239;-73
2022/02/07 12:14:31;;;;;;;2.70;1.30;;;5.00;99.90;;;;;;5071523;28;20232;-75
2022/02/07 12:16:59;;;;;;;3.60;2.15;;;5.00;99.90;;;;;;5071631;28;20722;-76
2022/02/07 12:19:36;;;;;;;5.45;2.13;;;5.00;99.90;;;;;;5071496;28;20200;-76
2022/02/07 12:22:13;;;;;;;3.70;1.75;;;4.90;99.90;;;;;;5071137;28;20205;-76
2022/02/07 12:24:56;;;;;;;4.78;2.67;;;4.90;99.90;;;;;;5071588;28;20239;-76
2022/02/07 12:27:23;;;;;;;4.05;1.40;;;4.90;99.90;;;;;;5071225;28;20197;-76
2022/02/07 12:30:16;;;;;;;2.72;1.63;;;5.00;99.90;;;;;;5071607;28;20612;-77
2022/02/07 12:32:45;;;;;;;2.13;1.38;;;5.00;99.90;;;;;;5070772;28;20232;-76
2022/02/07 12:35:12;;;;;;;2.65;1.50;;;5.00;99.90;;;;;;5071416;28;20220;-76
2022/02/07 12:37:41;;;;;;;3.80;2.30;;;5.00;99.90;;;;;;5071183;28;20212;-76
2022/02/07 12:40:11;;;;;;;8.35;1.73;;;5.20;99.90;;;;;;5071351;28;20291;-76
2022/02/07 12:42:40;;;;;;;6.10;2.10;;;5.30;99.90;;;;;;5070872;28;20570;-75
2022/02/07 12:45:07;;;;;;;5.65;1.75;;;5.30;99.90;;;;;;5070670;28;20208;-75
2022/02/07 12:47:37;;;;;;;4.45;2.15;;;5.40;99.90;;;;;;5069811;28;20207;-75
2022/02/07 12:50:12;;;;;;;7.00;2.20;;;5.40;99.90;;;;;;5069863;28;20265;-76
2022/02/07 12:52:39;;;;;;;3.05;1.52;;;5.40;99.90;;;;;;5070563;28;20203;-75
2022/02/07 12:55:08;;;;;;;3.47;1.73;;;5.40;99.90;;;;;;5071384;28;20208;-77
2022/02/07 12:57:39;;;;;;;3.15;1.33;;;5.40;99.90;;;;;;5071109;28;20212;-75
2022/02/07 13:00:07;;;;;;;5.55;1.98;;;5.40;99.90;;;;;;5068122;28;20200;-76
2022/02/07 13:02:34;;;;;;;4.13;2.13;;;5.20;99.90;;;;;;5070045;28;20212;-77
2022/02/07 13:05:01;;;;;;;3.10;1.85;;;5.10;99.90;;;;;;5071919;28;20196;-74
2022/02/07 13:07:36;;;;;;;7.50;2.45;;;5.10;99.90;;;;;;5071807;28;20396;-75
2022/02/07 13:10:05;;;;;;;3.88;2.05;;;5.10;99.90;;;;;;5071894;28;20195;-75
2022/02/07 13:12:50;;;;;;;3.95;1.75;;;5.10;99.90;;;;;;5071497;28;20208;-75
2022/02/07 13:15:22;;;;;;;4.20;1.75;;;5.10;99.90;;;;;;5069512;28;20216;-77
2022/02/07 13:17:52;;;;;;;6.15;2.97;;;5.10;99.90;;;;;;5071085;28;20203;-76
2022/02/07 13:20:20;;;;;;;5.85;1.58;;;5.20;99.90;;;;;;5071293;28;20203;-76
2022/02/07 13:23:00;;;;;;;2.80;1.55;;;5.10;99.90;;;;;;5070428;28;20203;-75
2022/02/07 13:25:38;;;;;;;4.80;2.00;;;5.00;99.90;;;;;;5071193;28;20228;-75
2022/02/07 13:28:05;;;;;;;4.88;2.50;;;4.90;99.90;;;;;;5070831;28;20208;-75
2022/02/07 13:30:32;;;;;;;3.58;1.65;;;4.90;99.90;;;;;;5070848;28;20200;-75
2022/02/07 13:32:59;;;;;;;5.57;1.83;;;4.90;99.90;;;;;;5070267;28;20671;-76
2022/02/07 13:35:27;;;;;;;4.38;1.92;;;4.90;99.90;;;;;;5071006;28;20254;-75
2022/02/07 13:38:07;;;;;;;5.72;1.80;;;5.20;99.90;;;;;;5070888;28;20608;-76
2022/02/07 13:40:40;;;;;;;3.42;1.80;;;5.40;99.90;;;;;;5071265;28;20208;-75
2022/02/07 13:43:10;;;;;;;4.65;1.80;;;5.70;99.90;;;;;;5070672;28;20228;-76
2022/02/07 13:45:38;;;;;;;6.13;2.08;;;5.80;99.90;;;;;;5070276;28;20224;-75
2022/02/07 13:48:06;;;;;;;4.10;1.55;;;5.80;99.90;;;;;;5070835;28;20200;-76
2022/02/07 13:50:36;;;;;;;4.13;1.75;;;5.80;99.90;;;;;;5072245;28;20213;-75
2022/02/07 13:53:06;;;;;;;4.80;1.90;;;5.80;99.90;;;;;;5072191;28;20215;-75
2022/02/07 13:55:37;;;;;;;6.30;3.40;;;5.90;99.90;;;;;;5072312;28;20319;-75
2022/02/07 13:58:06;;;;;;;3.30;3.00;;;5.80;99.90;;;;;;5072184;28;20671;-75
2022/02/07 14:00:35;;;;;;;3.22;1.77;;;5.80;99.90;;;;;;5070165;28;20214;-76
2022/02/07 14:03:14;;;;;;;5.95;1.90;;;5.90;99.90;;;;;;5069743;28;20207;-75
2022/02/07 14:05:42;;;;;;;4.90;1.83;;;5.90;99.90;;;;;;5070310;28;20277;-75
2022/02/07 14:08:12;;;;;;;4.30;2.13;;;6.10;99.90;;;;;;5070158;28;20683;-75
2022/02/07 14:10:40;;;;;;;3.35;1.92;;;6.30;99.90;;;;;;5070321;28;20192;-75
2022/02/07 14:13:09;;;;;;;3.50;1.52;;;6.70;99.90;;;;;;5069595;28;20265;-76
2022/02/07 14:15:37;;;;;;;3.50;1.85;;;7.00;99.90;;;;;;5070189;28;20712;-75
2022/02/07 14:18:07;;;;;;;3.30;2.05;;;7.30;99.90;;;;;;5070533;28;20204;-75
2022/02/07 14:20:36;;;;;;;4.57;2.25;;;7.20;99.90;;;;;;5069659;28;20250;-75
2022/02/07 14:23:03;;;;;;;3.90;1.63;;;7.10;99.90;;;;;;5069560;28;20203;-75
2022/02/07 14:25:31;;;;;;;4.18;1.80;;;6.90;99.90;;;;;;5070376;28;20220;-77
2022/02/07 14:27:59;;;;;;;5.75;2.30;;;6.90;99.90;;;;;;5071020;28;20565;-76
2022/02/07 14:30:26;;;;;;;2.65;1.52;;;7.40;99.90;;;;;;5070386;28;20298;-76
2022/02/07 14:32:54;;;;;;;4.78;2.10;;;7.80;99.10;;;;;;5070486;28;20211;-76
2022/02/07 14:35:21;;;;;;;3.35;1.98;;;8.10;98.60;;;;;;5070663;28;20216;-76
2022/02/07 14:37:48;;;;;;;5.78;1.90;;;8.30;98.60;;;;;;5070600;28;20197;-76